Time;durP1;ratioP1;P1;durP2;ratioP2;P2;SDS_P1;SDS_P2;PMS_P1;PMS_P2;Temp;Humidity;BMP_temperature;BMP_pressure;BME280_temperature;BME280_humidity;BME280_pressure;Samples;Min_cycle;Max_cycle;Signal;HPM_P1;HPM_P2
2023/10/04 00:00:30;;;;;;;14.45;3.95;;;;;;;12.79;100.00;101304.25;5016374;28;20056;-80
2023/10/04 00:02:58;;;;;;;9.18;3.35;;;;;;;12.74;100.00;101307.16;5010489;28;20046;-82
2023/10/04 00:05:26;;;;;;;8.68;2.60;;;;;;;12.67;100.00;101301.38;4996101;28;20050;-79
2023/10/04 00:07:55;;;;;;;8.00;3.00;;;;;;;12.61;100.00;101319.38;5016055;28;20096;-83
2023/10/04 00:10:26;;;;;;;9.57;2.65;;;;;;;12.58;100.00;101325.69;5019200;28;20108;-80
2023/10/04 00:12:54;;;;;;;8.45;2.75;;;;;;;12.55;100.00;101307.34;5003261;28;20053;-80
2023/10/04 00:19:43;;;;;;;12.25;3.28;;;;;;;12.50;100.00;101338.47;5013585;28;20041;-81
2023/10/04 00:22:11;;;;;;;7.80;3.08;;;;;;;12.52;100.00;101335.72;5005068;28;20113;-81
2023/10/04 00:24:39;;;;;;;12.10;3.42;;;;;;;12.52;100.00;101343.66;5024793;28;20042;-82
2023/10/04 00:27:06;;;;;;;8.52;2.83;;;;;;;12.51;100.00;101342.78;5015040;28;20038;-79
2023/10/04 00:29:35;;;;;;;12.68;2.92;;;;;;;12.56;100.00;101339.91;5031416;28;20091;-82
2023/10/04 00:32:03;;;;;;;10.15;2.85;;;;;;;12.51;100.00;101340.16;5004653;28;20042;-82
2023/10/04 00:34:31;;;;;;;13.02;3.35;;;;;;;12.50;100.00;101354.31;5008326;28;20052;-80
2023/10/04 00:36:59;;;;;;;11.43;2.83;;;;;;;12.40;100.00;101353.13;4995357;28;20129;-81
2023/10/04 00:39:26;;;;;;;8.60;2.72;;;;;;;12.38;100.00;101347.06;5010930;28;20052;-82
2023/10/04 00:41:55;;;;;;;10.45;2.80;;;;;;;12.37;100.00;101353.28;5011307;28;20042;-82
2023/10/04 00:44:24;;;;;;;14.68;3.58;;;;;;;12.32;100.00;101358.81;5009503;28;20026;-81
2023/10/04 00:46:53;;;;;;;14.63;3.58;;;;;;;12.28;100.00;101354.63;5034414;28;20077;-82
2023/10/04 00:49:20;;;;;;;7.53;2.72;;;;;;;12.27;100.00;101368.78;5018177;28;20072;-82
2023/10/04 00:51:48;;;;;;;9.90;3.10;;;;;;;12.22;100.00;101364.69;5010763;28;20042;-81
2023/10/04 00:54:16;;;;;;;11.90;3.33;;;;;;;12.20;100.00;101355.97;5011966;28;20060;-82
2023/10/04 00:56:46;;;;;;;12.50;2.95;;;;;;;12.17;100.00;101364.94;5015325;28;20042;-80
2023/10/04 00:59:15;;;;;;;6.72;2.58;;;;;;;12.10;100.00;101356.47;4999675;28;20046;-80
2023/10/04 01:01:43;;;;;;;9.40;3.45;;;;;;;12.09;100.00;101367.97;5013326;28;20041;-83
2023/10/04 01:04:16;;;;;;;13.10;4.10;;;;;;;12.08;100.00;101361.00;5013956;28;20189;-83
2023/10/04 01:06:44;;;;;;;10.00;3.60;;;;;;;12.06;100.00;101362.00;5009850;28;20065;-80
2023/10/04 01:09:13;;;;;;;7.70;3.05;;;;;;;12.07;100.00;101354.00;5013652;28;20106;-82
2023/10/04 01:11:46;;;;;;;12.05;3.03;;;;;;;12.10;100.00;101360.91;5026634;28;20073;-82
2023/10/04 01:14:25;;;;;;;11.35;3.38;;;;;;;12.11;100.00;101357.31;5007828;28;20082;-81
2023/10/04 01:16:54;;;;;;;12.32;2.65;;;;;;;12.15;100.00;101350.94;5012605;28;20044;-81
2023/10/04 01:19:26;;;;;;;8.32;2.30;;;;;;;12.15;100.00;101362.34;5010588;28;20053;-81
2023/10/04 01:21:55;;;;;;;14.60;2.95;;;;;;;12.13;100.00;101366.03;5008238;28;20061;-80
2023/10/04 01:24:23;;;;;;;11.10;3.08;;;;;;;12.13;100.00;101360.75;5010782;28;20050;-81
2023/10/04 01:26:51;;;;;;;11.23;3.17;;;;;;;12.10;100.00;101367.03;5010097;28;20053;-80
2023/10/04 01:29:18;;;;;;;12.48;3.65;;;;;;;12.05;100.00;101358.50;4993352;28;20102;-81
2023/10/04 01:31:46;;;;;;;12.45;3.00;;;;;;;12.04;100.00;101366.53;4998501;28;20042;-79
2023/10/04 01:34:14;;;;;;;11.98;3.28;;;;;;;12.05;100.00;101365.56;5012023;28;20037;-81
2023/10/04 01:36:41;;;;;;;9.98;3.08;;;;;;;12.07;100.00;101364.56;5025837;28;20058;-79
2023/10/04 01:39:16;;;;;;;9.50;2.85;;;;;;;12.02;100.00;101356.06;4998315;28;20665;-82
2023/10/04 01:41:47;;;;;;;16.48;2.90;;;;;;;11.96;100.00;101356.34;5027131;28;20109;-82
2023/10/04 01:44:16;;;;;;;8.90;2.80;;;;;;;11.94;100.00;101346.84;5010446;28;20264;-82
2023/10/04 01:46:44;;;;;;;12.68;3.53;;;;;;;11.86;100.00;101353.34;5014341;28;20115;-83
2023/10/04 01:49:14;;;;;;;13.73;3.03;;;;;;;11.85;100.00;101353.44;4997270;28;20112;-81
2023/10/04 01:51:42;;;;;;;10.75;3.25;;;;;;;11.85;100.00;101356.09;5012073;28;20069;-83
2023/10/04 01:54:15;;;;;;;10.23;3.55;;;;;;;11.81;100.00;101357.16;5012507;28;20073;-82
2023/10/04 01:56:46;;;;;;;14.88;3.25;;;;;;;11.79;100.00;101353.72;5014945;28;22005;-80
2023/10/04 01:59:14;;;;;;;13.60;3.05;;;;;;;11.76;100.00;101341.56;5014545;28;20049;-81
2023/10/04 02:01:41;;;;;;;9.05;2.97;;;;;;;11.75;100.00;101349.53;5011718;28;20129;-82
2023/10/04 02:04:09;;;;;;;10.57;3.58;;;;;;;11.75;100.00;101344.25;5008621;28;20054;-81
2023/10/04 02:06:38;;;;;;;10.55;3.20;;;;;;;11.72;100.00;101341.81;5016876;28;20054;-81
2023/10/04 02:09:10;;;;;;;12.20;3.80;;;;;;;11.74;100.00;101355.75;5014453;28;20127;-83
2023/10/04 02:11:41;;;;;;;10.15;3.03;;;;;;;11.68;100.00;101348.16;5016667;28;20056;-80
2023/10/04 02:14:11;;;;;;;11.52;3.70;;;;;;;11.68;100.00;101351.66;5035725;28;20128;-82
2023/10/04 02:16:39;;;;;;;12.07;3.67;;;;;;;11.65;100.00;101339.47;5029620;28;20046;-82
2023/10/04 02:19:07;;;;;;;7.32;3.15;;;;;;;11.65;100.00;101346.53;5017090;28;20521;-81
2023/10/04 02:21:38;;;;;;;8.88;3.30;;;;;;;11.67;100.00;101349.94;5001499;28;20145;-81
2023/10/04 02:24:09;;;;;;;7.95;2.88;;;;;;;11.67;100.00;101349.94;5019595;28;20138;-80
2023/10/04 02:26:37;;;;;;;8.63;3.10;;;;;;;11.71;100.00;101358.53;5048316;28;20160;-79
2023/10/04 02:29:05;;;;;;;9.20;3.42;;;;;;;11.73;100.00;101362.81;5013660;28;20061;-80
2023/10/04 02:31:33;;;;;;;14.20;3.47;;;;;;;11.76;100.00;101352.13;4999241;28;20050;-81
2023/10/04 02:34:05;;;;;;;10.25;3.00;;;;;;;11.79;100.00;101356.34;5017029;28;20073;-81
2023/10/04 02:36:34;;;;;;;10.75;3.78;;;;;;;11.79;100.00;101364.28;4984842;28;20115;-81
2023/10/04 02:39:07;;;;;;;7.45;3.13;;;;;;;11.81;100.00;101358.00;5036196;28;20046;-80
2023/10/04 02:41:34;;;;;;;12.88;3.28;;;;;;;11.80;100.00;101356.31;5002024;28;20046;-81
2023/10/04 02:44:02;;;;;;;10.40;3.58;;;;;;;11.82;100.00;101348.28;5016854;28;20077;-81
2023/10/04 02:46:30;;;;;;;9.85;3.40;;;;;;;11.79;100.00;101344.00;5007841;28;20114;-81
2023/10/04 02:48:57;;;;;;;10.88;3.17;;;;;;;11.79;100.00;101345.81;5030158;28;20040;-80
2023/10/04 02:51:29;;;;;;;14.32;3.83;;;;;;;11.75;100.00;101349.53;5031412;28;20096;-81
2023/10/04 02:53:57;;;;;;;14.15;3.60;;;;;;;11.74;100.00;101350.47;5027165;28;20056;-78
2023/10/04 02:56:24;;;;;;;10.63;3.53;;;;;;;11.74;100.00;101350.47;5033995;28;20038;-81
2023/10/04 02:58:52;;;;;;;10.43;3.50;;;;;;;11.75;100.00;101347.78;5028971;28;20050;-81
2023/10/04 03:01:22;;;;;;;9.30;3.70;;;;;;;11.75;100.00;101358.31;5015380;28;20038;-80
2023/10/04 03:03:53;;;;;;;11.50;3.85;;;;;;;11.75;100.00;101345.13;5025634;28;20137;-80
2023/10/04 03:06:24;;;;;;;10.40;4.25;;;;;;;11.77;100.00;101351.16;5009839;28;20116;-81
2023/10/04 03:08:53;;;;;;;11.80;3.70;;;;;;;11.74;100.00;101348.69;5032152;28;20042;-81
2023/10/04 03:11:23;;;;;;;9.40;3.78;;;;;;;11.77;100.00;101350.31;5033749;28;20042;-79
2023/10/04 03:13:52;;;;;;;14.02;3.90;;;;;;;11.77;100.00;101359.09;5027890;28;20057;-81
2023/10/04 03:16:24;;;;;;;15.93;3.75;;;;;;;11.79;100.00;101359.00;5022271;28;20065;-81
2023/10/04 03:18:54;;;;;;;9.77;3.58;;;;;;;11.79;100.00;101353.72;5024339;28;20068;-82
2023/10/04 03:21:22;;;;;;;12.38;3.28;;;;;;;11.81;100.00;101354.50;5006108;28;20060;-80
2023/10/04 03:23:49;;;;;;;7.15;3.20;;;;;;;11.82;100.00;101365.00;5031523;28;20058;-82
2023/10/04 03:26:18;;;;;;;13.73;4.47;;;;;;;11.77;100.00;101368.78;5000422;28;20046;-83
2023/10/04 03:28:49;;;;;;;14.48;4.47;;;;;;;11.77;100.00;101361.72;5017186;28;20098;-82
2023/10/04 03:31:28;;;;;;;10.52;4.15;;;;;;;11.77;100.00;101366.16;5001462;28;20061;-81
2023/10/04 03:33:59;;;;;;;15.02;4.75;;;;;;;11.77;100.00;101368.78;5015934;28;20034;-83
2023/10/04 03:36:29;;;;;;;12.57;4.13;;;;;;;11.78;100.00;101362.56;5018963;28;20060;-81
2023/10/04 03:39:00;;;;;;;8.95;4.30;;;;;;;11.76;100.00;101365.31;5021640;28;20068;-80
2023/10/04 03:41:28;;;;;;;13.98;5.10;;;;;;;11.76;100.00;101361.81;5018810;28;20046;-80
2023/10/04 03:43:55;;;;;;;10.27;4.10;;;;;;;11.77;100.00;101376.69;5015542;28;20045;-83
2023/10/04 03:46:23;;;;;;;16.15;4.30;;;;;;;11.75;100.00;101371.53;5019641;28;20103;-82
2023/10/04 03:48:51;;;;;;;19.83;4.50;;;;;;;11.73;100.00;101378.63;5014245;28;20054;-81
2023/10/04 03:51:22;;;;;;;15.82;5.43;;;;;;;11.78;100.00;101381.03;4990088;28;20030;-81
2023/10/04 03:53:51;;;;;;;9.25;4.32;;;;;;;11.78;100.00;101378.41;5005723;28;20518;-82
2023/10/04 03:56:21;;;;;;;10.15;4.35;;;;;;;11.81;100.00;101379.09;5015472;28;20104;-82
2023/10/04 03:58:48;;;;;;;11.20;4.80;;;;;;;11.79;100.00;101378.31;5018748;28;20081;-83
2023/10/04 04:01:20;;;;;;;18.33;4.80;;;;;;;11.84;100.00;101392.19;5020160;28;20054;-81
2023/10/04 04:03:50;;;;;;;13.10;4.72;;;;;;;11.85;100.00;101374.56;5018766;28;20050;-81
2023/10/04 04:06:18;;;;;;;13.40;5.05;;;;;;;11.85;100.00;101380.69;5022079;28;20057;-82
2023/10/04 04:09:46;;;;;;;13.82;4.78;;;;;;;11.82;100.00;101382.59;4986743;28;20056;-81
2023/10/04 04:12:27;;;;;;;14.13;4.65;;;;;;;11.77;100.00;101371.44;5016602;28;20041;-81
2023/10/04 04:14:54;;;;;;;10.80;4.70;;;;;;;11.77;100.00;101380.19;4999649;28;20121;-62
2023/10/04 04:17:22;;;;;;;13.63;4.97;;;;;;;11.77;100.00;101374.06;4965570;28;20142;-61
2023/10/04 04:19:50;;;;;;;22.92;5.18;;;;;;;11.74;100.00;101379.50;4967993;28;20670;-62
2023/10/04 04:22:23;;;;;;;11.50;4.90;;;;;;;11.75;100.00;101376.78;4966325;28;20141;-62
2023/10/04 04:24:51;;;;;;;11.25;4.38;;;;;;;11.72;100.00;101379.56;4969034;28;20596;-61
2023/10/04 04:27:22;;;;;;;9.25;4.47;;;;;;;11.72;100.00;101398.03;4962750;28;20043;-64
2023/10/04 04:29:52;;;;;;;10.27;4.15;;;;;;;11.75;100.00;101383.81;4966493;28;20094;-63
2023/10/04 04:32:26;;;;;;;14.25;5.57;;;;;;;11.77;100.00;101388.09;4970264;28;20137;-62
2023/10/04 04:34:54;;;;;;;13.35;4.95;;;;;;;11.79;100.00;101383.59;4966022;28;20055;-61
2023/10/04 04:37:23;;;;;;;15.95;4.78;;;;;;;11.80;100.00;101393.22;4969949;28;20480;-62
2023/10/04 04:39:51;;;;;;;10.13;4.53;;;;;;;11.79;100.00;101396.78;4970100;28;20078;-61
2023/10/04 04:42:29;;;;;;;10.30;4.63;;;;;;;11.79;100.00;101395.94;4967646;28;20043;-61
2023/10/04 04:44:57;;;;;;;18.90;5.32;;;;;;;11.76;100.00;101394.31;4969922;28;20149;-62
2023/10/04 04:47:24;;;;;;;11.70;4.25;;;;;;;11.79;100.00;101390.66;4967195;28;20170;-62
2023/10/04 04:49:52;;;;;;;12.35;4.78;;;;;;;11.73;100.00;101389.19;4966400;28;20081;-61
2023/10/04 04:52:19;;;;;;;9.70;4.00;;;;;;;11.78;100.00;101384.53;4966091;28;20082;-62
2023/10/04 04:54:46;;;;;;;9.38;4.60;;;;;;;11.77;100.00;101381.97;4966890;28;20121;-63
2023/10/04 04:57:13;;;;;;;11.73;4.45;;;;;;;11.74;100.00;101382.13;4966137;28;20442;-62
2023/10/04 04:59:42;;;;;;;10.10;4.47;;;;;;;11.73;100.00;101385.72;4971125;28;20050;-60
2023/10/04 05:02:10;;;;;;;10.85;4.30;;;;;;;11.69;100.00;101395.56;4971253;28;20462;-63
2023/10/04 05:04:37;;;;;;;17.73;5.90;;;;;;;11.70;100.00;101391.97;4966103;28;20161;-60
2023/10/04 05:07:06;;;;;;;14.10;4.30;;;;;;;11.71;100.00;101388.44;4971818;28;20106;-60
2023/10/04 05:09:34;;;;;;;11.68;4.35;;;;;;;11.73;100.00;101388.34;4967105;28;20059;-61
2023/10/04 05:12:02;;;;;;;14.27;4.30;;;;;;;11.73;100.00;101383.91;4969533;28;20101;-60
2023/10/04 05:14:29;;;;;;;11.25;4.82;;;;;;;11.71;100.00;101396.34;4965674;28;20051;-61
2023/10/04 05:16:57;;;;;;;11.52;4.07;;;;;;;11.72;100.00;101402.47;4968768;28;20050;-61
2023/10/04 05:19:25;;;;;;;10.93;4.70;;;;;;;11.73;100.00;101407.66;4969560;28;20505;-62
2023/10/04 05:21:55;;;;;;;12.48;3.75;;;;;;;11.74;100.00;101398.81;4968665;28;20537;-62
2023/10/04 05:24:22;;;;;;;9.90;4.15;;;;;;;11.78;100.00;101400.34;4967569;28;20089;-61
2023/10/04 05:26:50;;;;;;;13.80;4.28;;;;;;;11.75;100.00;101389.09;4969365;28;20086;-61
2023/10/04 05:29:17;;;;;;;10.45;4.38;;;;;;;11.76;100.00;101402.22;4965479;28;20117;-60
2023/10/04 05:31:44;;;;;;;12.88;4.50;;;;;;;11.79;100.00;101396.78;4961865;28;20050;-60
2023/10/04 05:34:12;;;;;;;9.57;3.90;;;;;;;11.79;100.00;101395.94;4966991;28;20130;-62
2023/10/04 05:36:39;;;;;;;8.35;2.92;;;;;;;11.77;100.00;101398.66;4962867;28;20393;-62
2023/10/04 05:39:08;;;;;;;13.32;4.38;;;;;;;11.77;100.00;101409.22;4968084;28;20082;-57
2023/10/04 05:41:35;;;;;;;11.88;4.30;;;;;;;11.80;100.00;101401.16;4966132;28;20086;-63
2023/10/04 05:44:03;;;;;;;8.48;3.95;;;;;;;11.84;100.00;101401.84;4969297;28;20078;-62
2023/10/04 05:46:30;;;;;;;9.57;4.15;;;;;;;11.85;100.00;101412.34;4967852;28;20145;-60
2023/10/04 05:48:58;;;;;;;11.00;3.65;;;;;;;11.85;100.00;101414.97;4975219;28;20470;-61
2023/10/04 05:51:25;;;;;;;12.85;3.95;;;;;;;11.88;100.00;101413.94;4970314;28;20268;-61
2023/10/04 05:53:53;;;;;;;16.45;4.40;;;;;;;11.90;100.00;101422.66;4966931;28;20082;-59
2023/10/04 05:56:21;;;;;;;13.38;4.13;;;;;;;11.92;100.00;101436.59;4971944;28;20055;-62
2023/10/04 05:58:49;;;;;;;12.48;3.88;;;;;;;11.90;100.00;101444.63;4962585;28;20145;-59
2023/10/04 06:01:17;;;;;;;14.52;3.83;;;;;;;11.98;100.00;101436.31;4964973;28;20125;-62
2023/10/04 06:03:45;;;;;;;11.68;5.18;;;;;;;11.96;100.00;101432.88;4965227;28;20081;-60
2023/10/04 06:06:12;;;;;;;9.45;4.38;;;;;;;11.91;100.00;101454.22;4964610;28;20145;-63
2023/10/04 06:08:40;;;;;;;10.63;4.07;;;;;;;12.00;100.00;101452.91;4972312;28;20077;-60
2023/10/04 06:11:07;;;;;;;10.23;3.40;;;;;;;11.96;100.00;101442.59;4985904;28;20067;-61
2023/10/04 06:13:34;;;;;;;12.40;3.53;;;;;;;11.99;100.00;101453.84;4971455;28;20047;-59
2023/10/04 06:16:02;;;;;;;10.13;4.30;;;;;;;11.97;100.00;101452.19;4977235;28;20136;-61
2023/10/04 06:18:29;;;;;;;17.85;3.67;;;;;;;11.98;100.00;101457.44;4968720;28;20097;-60
2023/10/04 06:20:59;;;;;;;17.67;3.30;;;;;;;12.05;100.00;101458.78;4973206;28;20055;-62
2023/10/04 06:23:32;;;;;;;11.65;3.50;;;;;;;12.11;100.00;101465.53;4972620;28;21376;-63
2023/10/04 06:25:59;;;;;;;10.07;3.28;;;;;;;12.14;100.00;101471.50;4973641;28;20054;-62
2023/10/04 06:28:28;;;;;;;10.90;3.28;;;;;;;12.11;100.00;101466.41;4974961;28;20059;-61
2023/10/04 06:30:56;;;;;;;12.13;3.38;;;;;;;12.24;100.00;101477.16;4976809;28;20089;-61
2023/10/04 06:33:24;;;;;;;15.38;3.63;;;;;;;12.29;100.00;101469.00;4978339;28;20394;-62
2023/10/04 06:35:52;;;;;;;15.07;3.88;;;;;;;12.32;100.00;101485.53;4978539;28;20046;-62
2023/10/04 06:38:20;;;;;;;8.55;3.28;;;;;;;12.31;100.00;101478.56;4971271;28;20077;-62
2023/10/04 06:40:48;;;;;;;7.55;3.33;;;;;;;12.51;100.00;101481.94;4967931;28;20557;-62
2023/10/04 06:43:15;;;;;;;7.93;3.10;;;;;;;12.56;100.00;101490.44;4967970;28;20130;-59
2023/10/04 06:45:42;;;;;;;15.23;3.63;;;;;;;12.65;100.00;101482.03;4969451;28;20137;-60
2023/10/04 06:48:10;;;;;;;10.32;3.35;;;;;;;12.67;100.00;101496.88;4968948;28;20081;-60
2023/10/04 06:50:38;;;;;;;16.20;3.88;;;;;;;12.68;100.00;101519.72;4968128;28;20153;-61
2023/10/04 06:53:10;;;;;;;8.77;3.42;;;;;;;12.75;100.00;101511.47;4968666;28;20073;-62
2023/10/04 06:55:38;;;;;;;14.45;3.90;;;;;;;12.85;100.00;101515.31;4972574;28;20102;-60
2023/10/04 06:58:11;;;;;;;13.25;4.30;;;;;;;12.86;100.00;101502.00;4965664;28;20179;-59
2023/10/04 07:00:40;;;;;;;7.47;3.30;;;;;;;12.88;100.00;101513.38;4983255;28;20074;-60
2023/10/04 07:03:10;;;;;;;13.07;3.88;;;;;;;12.93;100.00;101515.75;4969998;28;20085;-62
2023/10/04 07:05:39;;;;;;;12.85;4.30;;;;;;;12.87;100.00;101516.94;4978781;28;20075;-61
2023/10/04 07:08:11;;;;;;;17.10;3.85;;;;;;;12.94;100.00;101522.75;4973466;28;20066;-61
2023/10/04 07:10:38;;;;;;;10.88;4.13;;;;;;;13.09;100.00;101527.19;4971891;28;20058;-61
2023/10/04 07:13:07;;;;;;;8.35;3.65;;;;;;;13.05;100.00;101527.44;4967947;28;20568;-63
2023/10/04 07:15:41;;;;;;;9.20;3.78;;;;;;;12.98;100.00;101524.28;4973493;28;20070;-62
2023/10/04 07:18:11;;;;;;;10.05;3.30;;;;;;;12.98;100.00;101526.94;4969230;28;20169;-61
2023/10/04 07:20:39;;;;;;;13.75;3.95;;;;;;;13.10;100.00;101528.91;4969067;28;20158;-61
2023/10/04 07:23:09;;;;;;;17.52;4.70;;;;;;;13.20;100.00;101533.69;5001172;28;20074;-62
2023/10/04 07:25:39;;;;;;;10.80;3.85;;;;;;;13.21;99.38;101548.63;4970320;28;20153;-62
2023/10/04 07:28:09;;;;;;;8.75;3.35;;;;;;;13.25;99.78;101536.97;4969659;28;20054;-60
2023/10/04 07:30:39;;;;;;;14.48;3.65;;;;;;;13.31;99.20;101552.47;4972704;28;20102;-61
2023/10/04 07:33:08;;;;;;;12.55;3.65;;;;;;;13.31;99.32;101555.13;4968711;28;20077;-61
2023/10/04 07:35:36;;;;;;;11.77;3.85;;;;;;;13.46;98.00;101551.59;4970355;28;20046;-58
2023/10/04 07:38:06;;;;;;;11.95;3.42;;;;;;;13.47;98.16;101553.34;4971672;28;20860;-60
2023/10/04 07:40:35;;;;;;;16.40;3.08;;;;;;;13.51;98.06;101552.22;4967862;28;20062;-61
2023/10/04 07:43:02;;;;;;;10.35;3.72;;;;;;;13.51;97.89;101557.53;4970685;28;20066;-61
2023/10/04 07:45:30;;;;;;;9.77;3.10;;;;;;;13.51;97.33;101560.16;4970744;28;20045;-60
2023/10/04 07:47:59;;;;;;;8.93;3.40;;;;;;;13.49;97.86;101542.66;4972698;28;20050;-61
2023/10/04 07:50:28;;;;;;;12.48;3.95;;;;;;;13.52;97.40;101551.28;4970374;28;20062;-58
2023/10/04 07:52:59;;;;;;;11.48;4.03;;;;;;;13.54;97.44;101551.19;4973127;28;20074;-61
2023/10/04 07:55:27;;;;;;;15.45;4.20;;;;;;;13.66;96.96;101550.50;4984372;28;20551;-61
2023/10/04 07:57:58;;;;;;;13.65;3.53;;;;;;;13.51;97.99;101549.59;4971194;28;20055;-60
2023/10/04 08:00:26;;;;;;;11.63;3.65;;;;;;;13.75;96.47;101570.28;4972350;28;20390;-61
2023/10/04 08:02:53;;;;;;;13.10;3.83;;;;;;;13.68;96.42;101562.69;4969334;28;20091;-61
2023/10/04 08:05:23;;;;;;;11.40;4.45;;;;;;;13.81;95.83;101564.63;4968305;28;20175;-61
2023/10/04 08:07:55;;;;;;;30.23;5.18;;;;;;;13.84;95.83;101559.19;4970418;28;20086;-61
2023/10/04 08:10:25;;;;;;;10.00;4.20;;;;;;;13.80;95.38;101561.13;4969594;28;20086;-62
2023/10/04 08:12:54;;;;;;;13.15;4.07;;;;;;;13.96;95.16;101576.13;4967270;28;20509;-61
2023/10/04 08:15:25;;;;;;;10.85;3.45;;;;;;;14.04;94.76;101564.16;4968921;28;20521;-61
2023/10/04 08:17:54;;;;;;;9.15;3.38;;;;;;;14.14;93.90;101570.63;4970287;28;20082;-61
2023/10/04 08:20:23;;;;;;;7.57;2.70;;;;;;;14.24;93.24;101581.53;4969481;28;20129;-62
2023/10/04 08:22:50;;;;;;;12.88;3.75;;;;;;;14.34;93.02;101600.38;4969894;28;20054;-62
2023/10/04 08:25:19;;;;;;;11.18;3.35;;;;;;;14.31;92.35;101576.72;4972122;28;20085;-61
2023/10/04 08:27:50;;;;;;;12.48;3.10;;;;;;;14.09;94.02;101577.97;4967921;28;20133;-61
2023/10/04 08:30:18;;;;;;;11.88;4.22;;;;;;;14.30;93.28;101580.31;4970298;28;20054;-60
2023/10/04 08:32:48;;;;;;;10.60;3.85;;;;;;;14.50;92.98;101593.28;4970303;28;20262;-60
2023/10/04 08:35:28;;;;;;;10.10;3.35;;;;;;;14.48;91.63;101592.50;4969655;28;20097;-62
2023/10/04 08:37:57;;;;;;;12.07;3.55;;;;;;;14.32;92.32;101600.47;4969603;28;20122;-61
2023/10/04 08:40:29;;;;;;;13.30;3.55;;;;;;;14.33;92.94;101611.94;4967053;28;20082;-62
2023/10/04 08:42:58;;;;;;;9.38;3.50;;;;;;;14.29;92.91;101627.13;4968038;28;20082;-59
2023/10/04 08:45:32;;;;;;;9.15;3.53;;;;;;;14.17;92.85;101604.88;4968667;28;20819;-59
2023/10/04 08:48:01;;;;;;;11.45;3.58;;;;;;;14.37;93.96;101601.06;4968794;28;20058;-60
2023/10/04 08:50:41;;;;;;;14.80;4.25;;;;;;;14.57;91.36;101602.53;4977165;28;20079;-60
2023/10/04 08:53:27;;;;;;;9.45;3.42;;;;;;;14.54;91.56;101607.16;4985606;28;20046;-62
2023/10/04 08:56:02;;;;;;;14.85;4.07;;;;;;;14.39;92.33;101593.84;4982581;28;20086;-61
2023/10/04 08:58:31;;;;;;;19.17;3.58;;;;;;;14.49;92.07;101596.00;4979891;28;20066;-58
2023/10/04 09:00:58;;;;;;;11.95;4.57;;;;;;;14.63;90.57;101602.19;4968653;28;20062;-60
2023/10/04 09:03:26;;;;;;;12.35;3.97;;;;;;;14.60;91.05;101612.13;4969872;28;20538;-60
2023/10/04 09:05:54;;;;;;;17.83;3.72;;;;;;;14.64;92.26;101603.03;4967380;28;20062;-60
2023/10/04 09:08:24;;;;;;;17.65;3.35;;;;;;;14.76;91.35;101604.06;4981811;28;20166;-59
2023/10/04 09:10:55;;;;;;;9.32;3.25;;;;;;;14.80;90.76;101609.09;4966794;28;20102;-61
2023/10/04 09:13:23;;;;;;;9.30;3.30;;;;;;;14.87;90.46;101609.59;4962780;28;20067;-60
2023/10/04 09:15:51;;;;;;;17.98;4.18;;;;;;;14.93;89.81;101609.19;4964368;28;20066;-60
2023/10/04 09:18:29;;;;;;;10.20;3.13;;;;;;;14.90;89.27;101618.22;4963826;28;20081;-59
2023/10/04 09:21:13;;;;;;;12.00;3.53;;;;;;;14.82;91.05;101619.63;4964615;28;20141;-61
2023/10/04 09:23:43;;;;;;;12.02;3.20;;;;;;;14.76;90.74;101618.19;4964683;28;20066;-59
2023/10/04 09:26:15;;;;;;;10.32;3.00;;;;;;;14.72;90.70;101616.66;4965198;28;20070;-61
2023/10/04 09:28:42;;;;;;;16.05;3.83;;;;;;;14.59;91.77;101624.50;4965824;28;20149;-62
2023/10/04 09:31:10;;;;;;;12.32;3.28;;;;;;;14.64;91.29;101638.34;4967049;28;20051;-63
2023/10/04 09:33:38;;;;;;;11.07;3.30;;;;;;;14.72;90.82;101663.50;4966340;28;20342;-61
2023/10/04 09:36:06;;;;;;;11.45;3.33;;;;;;;14.67;89.08;101650.53;4963311;28;20073;-60
2023/10/04 09:38:35;;;;;;;11.93;3.70;;;;;;;14.66;89.12;101627.63;4964709;28;20697;-60
2023/10/04 09:41:03;;;;;;;14.45;3.70;;;;;;;14.82;89.22;101638.19;4961907;28;20058;-60
2023/10/04 09:43:37;;;;;;;9.70;3.22;;;;;;;14.69;88.07;101630.97;4965818;28;20587;-58
2023/10/04 09:46:09;;;;;;;11.23;3.28;;;;;;;14.78;87.46;101636.66;4963844;28;20081;-62
2023/10/04 09:48:41;;;;;;;14.00;3.45;;;;;;;14.93;86.83;101638.38;4965100;28;20141;-57
2023/10/04 09:51:09;;;;;;;13.68;3.35;;;;;;;15.24;84.61;101626.72;4965797;28;20057;-58
2023/10/04 09:53:41;;;;;;;9.15;3.75;;;;;;;15.49;84.43;101627.81;4966704;28;20402;-60
2023/10/04 09:56:13;;;;;;;8.85;3.03;;;;;;;15.59;84.01;101637.75;4969449;28;20050;-57
2023/10/04 09:58:48;;;;;;;14.07;3.20;;;;;;;15.61;83.26;101633.19;4969447;28;20548;-61
2023/10/04 10:01:19;;;;;;;7.93;2.78;;;;;;;15.87;82.63;101631.56;4961044;28;20138;-56
2023/10/04 10:03:53;;;;;;;11.32;3.65;;;;;;;15.78;81.07;101637.47;4965033;28;20517;-59
2023/10/04 10:06:22;;;;;;;10.63;3.30;;;;;;;15.77;82.09;101657.00;4964500;28;21985;-56
2023/10/04 10:08:58;;;;;;;11.13;3.13;;;;;;;15.59;82.07;101639.56;4968496;28;20058;-61
2023/10/04 10:11:25;;;;;;;8.85;2.53;;;;;;;15.70;81.53;101645.91;4961867;28;20068;-61
2023/10/04 10:13:54;;;;;;;11.77;2.92;;;;;;;15.50;81.73;101646.31;4965640;28;20132;-61
2023/10/04 10:16:23;;;;;;;13.85;3.13;;;;;;;15.47;81.26;101658.91;4964542;28;20149;-57
2023/10/04 10:18:52;;;;;;;12.43;3.15;;;;;;;15.34;82.08;101646.41;4965987;28;20141;-59
2023/10/04 10:21:20;;;;;;;8.68;2.85;;;;;;;15.41;82.10;101652.19;4966731;28;20588;-61
2023/10/04 10:23:57;;;;;;;10.07;2.90;;;;;;;15.58;81.10;101654.66;4966514;28;20081;-63
2023/10/04 10:26:25;;;;;;;9.57;3.15;;;;;;;15.78;80.19;101649.88;4963767;28;20051;-60
2023/10/04 10:29:04;;;;;;;6.90;2.90;;;;;;;16.09;78.65;101659.38;4963488;28;20605;-60
2023/10/04 10:31:32;;;;;;;11.55;3.17;;;;;;;16.24;76.95;101660.16;4960638;28;20554;-60
2023/10/04 10:34:02;;;;;;;10.05;2.92;;;;;;;16.32;77.50;101663.16;4965018;28;20133;-61
2023/10/04 10:36:32;;;;;;;11.32;3.10;;;;;;;15.93;77.33;101664.81;4964301;28;20117;-60
2023/10/04 10:39:18;;;;;;;13.38;2.97;;;;;;;15.45;78.83;101664.34;4950642;28;20519;-61
2023/10/04 10:41:49;;;;;;;10.85;3.05;;;;;;;15.39;78.63;101673.50;4962211;28;20102;-60
2023/10/04 10:44:19;;;;;;;10.38;3.35;;;;;;;15.32;79.46;101674.84;4969144;28;20502;-60
2023/10/04 10:47:04;;;;;;;10.63;3.20;;;;;;;15.30;80.33;101662.63;4966760;28;20513;-60
2023/10/04 10:49:50;;;;;;;8.65;2.50;;;;;;;15.19;81.17;101690.66;4966459;28;20177;-62
2023/10/04 10:52:39;;;;;;;12.32;2.95;;;;;;;15.10;81.98;101659.41;4968059;28;20067;-60
2023/10/04 10:55:15;;;;;;;11.68;3.28;;;;;;;15.23;81.85;101659.50;4967146;28;20525;-62
2023/10/04 10:57:44;;;;;;;12.57;3.45;;;;;;;15.41;81.79;101662.81;4966902;28;20534;-59
2023/10/04 11:00:22;;;;;;;13.75;3.25;;;;;;;15.67;80.15;101656.75;4959256;28;20134;-61
2023/10/04 11:02:53;;;;;;;8.05;2.72;;;;;;;15.92;78.67;101652.50;4965485;28;20101;-61
2023/10/04 11:05:22;;;;;;;12.85;3.30;;;;;;;16.16;77.00;101656.19;4967206;28;20085;-60
2023/10/04 11:07:51;;;;;;;11.20;2.97;;;;;;;16.55;76.58;101665.13;4965140;28;20055;-61
2023/10/04 11:10:20;;;;;;;11.10;3.65;;;;;;;16.89;73.29;101660.22;4967290;28;20054;-61
2023/10/04 11:12:47;;;;;;;9.90;3.45;;;;;;;16.66;71.64;101659.94;4967646;28;20141;-60
2023/10/04 11:15:20;;;;;;;7.10;2.65;;;;;;;16.49;72.06;101668.22;4967278;28;20548;-60
2023/10/04 11:17:47;;;;;;;6.35;2.85;;;;;;;16.50;73.37;101661.94;4963300;28;20150;-60
2023/10/04 11:20:17;;;;;;;7.43;2.40;;;;;;;16.39;73.63;101649.38;4964264;28;20679;-59
2023/10/04 11:22:45;;;;;;;6.40;2.42;;;;;;;16.57;73.49;101649.06;4968320;28;20071;-61
2023/10/04 11:25:13;;;;;;;10.40;2.67;;;;;;;16.42;73.79;101662.44;4968140;28;20134;-61
2023/10/04 11:27:48;;;;;;;9.07;3.08;;;;;;;16.06;74.93;101663.06;4966489;28;20679;-58
2023/10/04 11:30:27;;;;;;;10.35;2.90;;;;;;;15.86;76.02;101664.38;4963104;28;20198;-60